createdAt,value
2023-03-23T16:00:25.229Z,77.90
2023-03-23T16:03:38.033Z,62.95
2023-03-23T16:06:46.110Z,45.43
2023-03-23T16:09:52.840Z,34.90
2023-03-23T16:13:00.319Z,39.78
2023-03-23T16:16:07.702Z,37.50
2023-03-23T16:19:15.120Z,35.13
2023-03-23T16:22:21.471Z,32.67
2023-03-23T16:25:27.279Z,28.77
2023-03-23T16:28:33.137Z,23.67
2023-03-23T16:31:38.831Z,23.35
2023-03-23T16:34:45.826Z,20.92
2023-03-23T16:37:50.830Z,18.37
2023-03-23T16:40:57.481Z,18.90
2023-03-23T16:44:03.526Z,22.55
2023-03-23T16:47:09.224Z,26.02
2023-03-23T16:50:14.643Z,38.50
2023-03-23T16:53:23.674Z,45.45
2023-03-23T16:56:31.000Z,42.73
2023-03-23T16:59:38.053Z,38.13
2023-03-23T17:02:44.386Z,53.13
2023-03-23T17:05:52.490Z,51.73
2023-03-23T17:08:58.129Z,61.92
2023-03-23T17:12:04.387Z,70.22
2023-03-23T17:15:10.025Z,78.00
2023-03-23T17:18:17.498Z,104.83
2023-03-23T17:21:24.006Z,123.45
2023-03-23T17:24:32.021Z,141.35
2023-03-23T17:27:39.112Z,118.30
2023-03-23T17:30:44.914Z,127.87
2023-03-23T17:33:51.756Z,132.87
2023-03-23T17:36:58.671Z,143.22
2023-03-23T17:40:06.420Z,181.32
2023-03-23T17:43:15.748Z,165.43
2023-03-23T17:46:23.628Z,155.55
2023-03-23T17:49:30.670Z,135.90
2023-03-23T17:52:36.798Z,150.20
2023-03-23T17:55:44.349Z,155.82
2023-03-23T17:58:51.714Z,138.18
2023-03-23T18:01:57.814Z,132.15
2023-03-23T18:05:07.126Z,112.92
2023-03-23T18:08:12.500Z,112.10
2023-03-23T18:11:18.650Z,145.95
2023-03-23T18:14:25.474Z,170.00
2023-03-23T18:17:30.735Z,148.22
2023-03-23T18:20:37.245Z,177.93
2023-03-23T18:23:52.961Z,156.50
2023-03-23T18:26:51.252Z,149.30
2023-03-23T18:29:58.514Z,157.15
2023-03-23T18:33:05.385Z,159.52
2023-03-23T18:36:16.180Z,179.87
2023-03-23T18:39:23.026Z,193.30
2023-03-23T18:42:29.308Z,186.85
2023-03-23T18:45:35.546Z,189.93
2023-03-23T18:48:44.288Z,180.15
2023-03-23T18:51:50.738Z,176.95
2023-03-23T18:54:57.256Z,157.70
2023-03-23T18:58:06.496Z,148.97
2023-03-23T19:01:15.521Z,140.68
2023-03-23T19:04:25.393Z,125.65
2023-03-23T19:07:31.618Z,123.35
2023-03-23T19:10:38.045Z,125.38
2023-03-23T19:13:58.435Z,134.00
2023-03-23T19:16:54.296Z,139.10
2023-03-23T19:20:03.048Z,156.07
2023-03-23T19:23:11.604Z,148.62
2023-03-23T19:26:17.509Z,141.60
2023-03-23T19:29:30.338Z,134.75
2023-03-23T19:32:38.019Z,128.50
2023-03-23T19:35:44.510Z,102.85
2023-03-23T19:38:50.848Z,93.17
2023-03-23T19:41:59.140Z,89.22
2023-03-23T19:45:05.770Z,88.97
2023-03-23T19:48:16.103Z,81.55
2023-03-23T19:51:22.656Z,68.85
2023-03-23T19:54:27.292Z,76.53
2023-03-23T19:57:35.107Z,76.87
2023-03-23T20:00:44.249Z,69.40
2023-03-23T20:03:51.521Z,59.88
2023-03-23T20:06:59.181Z,60.73
2023-03-23T20:10:06.598Z,55.92
2023-03-23T20:13:13.006Z,58.98
2023-03-23T20:16:19.329Z,54.95
2023-03-23T20:19:24.749Z,50.30
2023-03-23T20:22:31.683Z,44.42
2023-03-23T20:25:40.215Z,40.38
2023-03-23T20:28:47.852Z,36.05
2023-03-23T20:31:57.895Z,30.75
2023-03-23T20:35:03.655Z,28.12
2023-03-23T20:38:10.121Z,26.87
2023-03-23T20:41:19.609Z,26.57
2023-03-23T20:44:29.521Z,43.60
2023-03-23T20:47:36.972Z,36.80
2023-03-23T20:50:42.985Z,30.30
2023-03-23T20:53:48.341Z,27.48
2023-03-23T20:56:56.249Z,26.93
2023-03-23T21:00:07.601Z,25.82
2023-03-23T21:03:15.339Z,23.25
2023-03-23T21:06:26.022Z,23.62
2023-03-23T21:09:32.550Z,21.07
2023-03-23T21:12:40.689Z,20.50
2023-03-23T21:15:47.884Z,19.82
2023-03-23T21:18:56.550Z,20.75
2023-03-23T21:22:04.413Z,20.23
2023-03-23T21:25:09.931Z,21.05
2023-03-23T21:28:16.677Z,38.63
2023-03-23T21:31:23.722Z,22.80
2023-03-23T21:34:29.770Z,22.42
2023-03-23T21:37:35.623Z,22.15
2023-03-23T21:40:43.519Z,22.30
2023-03-23T21:43:52.212Z,21.90
2023-03-23T21:46:59.475Z,22.13
2023-03-23T21:50:05.569Z,25.02
2023-03-23T21:53:13.676Z,26.42
2023-03-23T21:56:21.317Z,26.12
2023-03-23T21:59:27.045Z,24.37
2023-03-23T22:02:34.844Z,27.02
2023-03-23T22:05:41.587Z,26.65
2023-03-23T22:08:50.056Z,28.60
2023-03-23T22:11:56.499Z,27.00
2023-03-23T22:15:02.859Z,29.25
2023-03-23T22:18:11.818Z,27.40
2023-03-23T22:21:19.361Z,26.87
2023-03-23T22:24:25.891Z,25.80
2023-03-23T22:27:32.130Z,24.52
2023-03-23T22:30:40.261Z,23.77
2023-03-23T22:33:46.652Z,22.93
2023-03-23T22:36:53.530Z,23.32
2023-03-23T22:40:00.364Z,25.40
2023-03-23T22:43:06.574Z,24.52
2023-03-23T22:46:13.476Z,23.55
2023-03-23T22:49:21.424Z,23.90
2023-03-23T22:52:28.303Z,22.82
2023-03-23T22:55:34.216Z,20.52
2023-03-23T22:58:40.415Z,24.05
2023-03-23T23:01:46.489Z,21.37
2023-03-23T23:04:53.237Z,21.12
2023-03-23T23:07:58.986Z,22.80
2023-03-23T23:11:08.293Z,22.55
2023-03-23T23:14:14.157Z,21.23
2023-03-23T23:17:21.077Z,21.57
2023-03-23T23:20:27.099Z,20.48
2023-03-23T23:23:34.449Z,21.30
2023-03-23T23:26:42.030Z,21.87
2023-03-23T23:29:46.981Z,21.10
2023-03-23T23:32:54.373Z,20.75
2023-03-23T23:36:03.033Z,21.82
2023-03-23T23:39:10.320Z,21.77
2023-03-23T23:42:16.495Z,22.07
2023-03-23T23:45:23.581Z,22.05
2023-03-23T23:48:29.419Z,20.80
2023-03-23T23:51:36.144Z,21.50
2023-03-23T23:54:44.874Z,20.68
2023-03-23T23:57:52.114Z,20.27
